createdAt,value
2022-10-12T00:00:40.554Z,11.11
2022-10-12T00:03:08.495Z,11.19
2022-10-12T00:05:36.443Z,11.19
2022-10-12T00:08:05.726Z,11.21
2022-10-12T00:10:33.822Z,11.17
2022-10-12T00:13:01.868Z,11.03
2022-10-12T00:15:29.773Z,11.01
2022-10-12T00:17:57.637Z,11.01
2022-10-12T00:20:25.558Z,11.04
2022-10-12T00:22:53.442Z,11.02
2022-10-12T00:25:22.696Z,11.07
2022-10-12T00:27:50.607Z,10.80
2022-10-12T00:30:18.854Z,10.83
2022-10-12T00:32:46.746Z,10.79
2022-10-12T00:35:14.661Z,10.91
2022-10-12T00:37:42.614Z,11.24
2022-10-12T00:40:11.871Z,11.30
2022-10-12T00:42:41.173Z,11.15
2022-10-12T00:45:10.473Z,11.00
2022-10-12T00:47:39.979Z,11.11
2022-10-12T00:50:13.838Z,11.08
2022-10-12T00:52:43.723Z,11.24
2022-10-12T00:55:14.357Z,11.18
2022-10-12T00:57:47.092Z,11.14
2022-10-12T01:00:16.207Z,11.11
2022-10-12T01:02:44.957Z,10.95
2022-10-12T01:05:13.376Z,10.90
2022-10-12T01:07:41.825Z,10.76
2022-10-12T01:10:10.560Z,10.78
2022-10-12T01:12:38.679Z,10.53
2022-10-12T01:15:08.880Z,10.50
2022-10-12T01:17:42.521Z,10.43
2022-10-12T01:20:34.617Z,10.32
2022-10-12T01:23:30.845Z,10.55
2022-10-12T01:26:17.523Z,10.39
2022-10-12T01:28:53.749Z,10.33
2022-10-12T01:31:32.278Z,10.38
2022-10-12T01:34:05.182Z,10.49
2022-10-12T01:36:36.553Z,10.28
2022-10-12T01:39:08.864Z,10.32
2022-10-12T01:41:39.981Z,10.42
2022-10-12T01:44:07.904Z,10.48
2022-10-12T01:46:47.694Z,10.43
2022-10-12T01:49:18.297Z,10.40
2022-10-12T01:52:03.967Z,10.46
2022-10-12T01:54:40.538Z,10.46
2022-10-12T01:57:14.484Z,10.45
2022-10-12T01:59:46.537Z,10.59
2022-10-12T02:02:21.137Z,10.46
2022-10-12T02:04:51.182Z,10.53
2022-10-12T02:07:23.997Z,10.47
2022-10-12T02:09:54.025Z,10.50
2022-10-12T02:12:23.714Z,10.57
2022-10-12T02:14:55.002Z,10.43
2022-10-12T02:17:24.966Z,10.43
2022-10-12T02:19:56.848Z,10.60
2022-10-12T02:22:26.162Z,10.56
2022-10-12T02:24:58.091Z,10.37
2022-10-12T02:27:26.985Z,10.58
2022-10-12T02:29:55.124Z,10.48
2022-10-12T02:32:29.786Z,10.37
2022-10-12T02:35:01.237Z,10.37
2022-10-12T02:37:35.055Z,10.27
2022-10-12T02:40:06.397Z,10.20
2022-10-12T02:43:05.349Z,10.27
2022-10-12T02:45:26.038Z,10.40
2022-10-12T02:47:56.141Z,10.28
2022-10-12T02:50:24.705Z,10.21
2022-10-12T02:52:53.020Z,10.13
2022-10-12T02:55:20.945Z,10.27
2022-10-12T02:57:48.880Z,10.02
2022-10-12T03:00:18.091Z,9.97
2022-10-12T03:02:45.984Z,9.89
2022-10-12T03:05:15.407Z,9.85
2022-10-12T03:07:43.331Z,9.91
2022-10-12T03:10:11.453Z,9.69
2022-10-12T03:12:39.379Z,9.60
2022-10-12T03:15:07.978Z,9.43
2022-10-12T03:17:36.065Z,9.30
2022-10-12T03:20:04.113Z,9.32
2022-10-12T03:22:33.401Z,9.34
2022-10-12T03:25:01.269Z,9.21
2022-10-12T03:27:29.165Z,9.10
2022-10-12T03:29:57.058Z,8.94
2022-10-12T03:32:24.955Z,8.86
2022-10-12T03:34:52.842Z,8.77
2022-10-12T03:37:20.717Z,8.68
2022-10-12T03:39:49.994Z,8.62
2022-10-12T03:42:17.868Z,8.59
2022-10-12T03:44:45.766Z,8.59
2022-10-12T03:47:13.729Z,8.63
2022-10-12T03:49:41.653Z,8.52
2022-10-12T03:52:10.424Z,8.77
2022-10-12T03:54:38.301Z,8.60
2022-10-12T03:57:07.640Z,8.61
2022-10-12T03:59:35.642Z,8.83
2022-10-12T04:02:03.507Z,8.79
2022-10-12T04:04:31.389Z,8.67
2022-10-12T04:06:59.277Z,8.82
2022-10-12T04:09:27.331Z,8.62
2022-10-12T04:11:55.206Z,8.70
2022-10-12T04:14:24.594Z,8.83
2022-10-12T04:16:54.330Z,8.93
2022-10-12T04:19:22.469Z,8.86
2022-10-12T04:21:50.375Z,8.60
2022-10-12T04:24:18.410Z,8.43
2022-10-12T04:26:46.296Z,8.33
2022-10-12T04:29:14.709Z,8.26
2022-10-12T04:31:44.089Z,8.15
2022-10-12T04:34:11.969Z,8.23
2022-10-12T04:36:40.382Z,8.22
2022-10-12T04:39:08.327Z,8.13
2022-10-12T04:41:36.232Z,8.02
2022-10-12T04:44:04.115Z,7.94
2022-10-12T04:46:32.038Z,7.96
2022-10-12T04:49:01.588Z,7.94
2022-10-12T04:51:29.475Z,8.00
2022-10-12T04:53:57.415Z,7.88
2022-10-12T04:56:25.307Z,7.91
2022-10-12T04:58:53.285Z,7.88
2022-10-12T05:01:21.262Z,7.84
2022-10-12T05:03:49.170Z,7.77
2022-10-12T05:06:18.464Z,7.77
2022-10-12T05:08:46.343Z,7.80
2022-10-12T05:11:14.234Z,7.83
2022-10-12T05:13:42.117Z,7.77
2022-10-12T05:16:10.052Z,7.76
2022-10-12T05:18:37.946Z,7.76
2022-10-12T05:21:06.038Z,7.75
2022-10-12T05:23:35.339Z,7.93
2022-10-12T05:26:03.298Z,7.76
2022-10-12T05:28:31.338Z,7.81
2022-10-12T05:30:59.406Z,7.87
2022-10-12T05:33:27.316Z,7.84
2022-10-12T05:35:56.686Z,7.97
2022-10-12T05:38:24.854Z,7.95
2022-10-12T05:40:59.278Z,7.94
2022-10-12T05:43:28.500Z,7.96
2022-10-12T05:45:56.436Z,8.21
2022-10-12T05:48:24.361Z,8.45
2022-10-12T05:50:53.462Z,8.17
2022-10-12T05:53:21.724Z,8.33
